createdAt,value
2018-07-09T00:02:07.316Z,99.9
2018-07-09T00:05:02.888Z,99.9
2018-07-09T00:22:36.303Z,99.9
2018-07-09T00:34:18.575Z,99.9
2018-07-09T00:37:14.086Z,99.9
2018-07-09T01:56:13.850Z,99.9
2018-07-09T02:10:51.449Z,99.9
2018-07-09T02:45:57.483Z,99.9
2018-07-09T02:48:52.983Z,99.9
2018-07-09T03:06:25.949Z,99.9
2018-07-09T03:12:16.964Z,99.9
2018-07-09T05:00:29.233Z,99.9
2018-07-09T06:25:32.724Z,90
2018-07-09T06:28:29.619Z,90.3
2018-07-09T06:31:29.605Z,87.5
2018-07-09T06:34:21.907Z,90.1
2018-07-09T06:37:21.142Z,89.3
2018-07-09T06:40:14.951Z,90.9
2018-07-09T06:43:14.415Z,90.8
2018-07-09T06:46:07.876Z,90.8
2018-07-09T06:49:04.337Z,90.4
2018-07-09T06:52:00.805Z,90.6
2018-07-09T06:55:00.750Z,90.1
2018-07-09T06:57:54.692Z,86.6
2018-07-09T07:00:51.421Z,86.5
2018-07-09T07:03:47.204Z,89.8
2018-07-09T07:21:26.430Z,86.1
2018-07-09T07:27:19.884Z,85.3
2018-07-09T07:30:16.650Z,81.3
2018-07-09T07:42:03.712Z,79.8
2018-07-09T07:56:48.841Z,72.6
2018-07-09T07:59:52.214Z,74
2018-07-09T08:02:41.579Z,71.4
2018-07-09T08:17:25.295Z,68.2
2018-07-09T08:46:51.568Z,71.3
2018-07-09T08:52:44.453Z,71.6
2018-07-09T08:59:25.578Z,72
2018-07-09T09:04:28.912Z,70.9
2018-07-09T09:07:25.491Z,73.5
2018-07-09T09:10:24.762Z,72.8
2018-07-09T09:13:18.411Z,72.4
2018-07-09T09:16:17.146Z,72
2018-07-09T09:22:06.903Z,73.2
2018-07-09T09:25:03.118Z,71.2
2018-07-09T09:27:59.519Z,71.2
2018-07-09T09:30:55.798Z,72.8
2018-07-09T09:33:52.151Z,72.1
2018-07-09T09:36:51.195Z,73.1
2018-07-09T09:39:44.968Z,71.3
2018-07-09T09:42:41.023Z,71
2018-07-09T09:45:37.554Z,70
2018-07-09T09:48:40.511Z,69.6
2018-07-09T09:54:26.173Z,69.8
2018-07-09T09:57:25.933Z,69.2
2018-07-09T10:00:21.677Z,73.7
2018-07-09T10:03:15.063Z,73.5
2018-07-09T10:06:15.493Z,70.3
2018-07-09T10:09:08.687Z,70.1
2018-07-09T10:12:03.961Z,70.7
2018-07-09T10:15:01.257Z,72.5
2018-07-09T10:17:56.583Z,70.9
2018-07-09T10:20:52.922Z,69.1
2018-07-09T10:23:49.222Z,69.6
2018-07-09T10:26:45.532Z,69.5
2018-07-09T10:29:41.849Z,66.9
2018-07-09T10:32:38.378Z,72
2018-07-09T10:35:34.446Z,69
2018-07-09T10:38:30.762Z,66.3
2018-07-09T10:41:27.072Z,66.9
2018-07-09T10:44:23.331Z,68
2018-07-09T10:47:19.574Z,66.2
2018-07-09T10:50:15.889Z,68.9
2018-07-09T10:53:14.976Z,69.2
2018-07-09T10:56:08.330Z,69.7
2018-07-09T10:59:04.586Z,69.4
2018-07-09T11:02:00.829Z,68.3
2018-07-09T11:05:00.963Z,69.9
2018-07-09T11:07:56.150Z,73.1
2018-07-09T11:10:52.374Z,69.7
2018-07-09T11:13:45.695Z,68.4
2018-07-09T11:16:41.923Z,70.5
2018-07-09T11:19:39.092Z,68.6
2018-07-09T11:22:34.272Z,68.4
2018-07-09T11:25:30.483Z,66.1
2018-07-09T11:28:30.448Z,65.9
2018-07-09T11:31:22.836Z,64.7
2018-07-09T11:34:19.159Z,66.2
2018-07-09T11:37:15.394Z,65.4
2018-07-09T11:40:14.472Z,65.3
2018-07-09T11:43:07.786Z,63.4
2018-07-09T11:46:03.891Z,65.7
2018-07-09T11:49:00.186Z,65.8
2018-07-09T11:51:56.384Z,65.9
2018-07-09T11:54:52.572Z,65.4
2018-07-09T11:57:48.734Z,62.9
2018-07-09T12:00:45.131Z,63.1
2018-07-09T12:03:41.076Z,63.5
2018-07-09T12:06:40.276Z,65.8
2018-07-09T12:09:33.399Z,65.1
2018-07-09T12:12:29.566Z,66.8
2018-07-09T12:15:28.771Z,66.9
2018-07-09T12:18:21.897Z,67.7
2018-07-09T12:21:18.184Z,66.5
2018-07-09T12:24:15.242Z,67.4
2018-07-09T12:27:10.448Z,67.7
2018-07-09T12:30:06.660Z,68.3
2018-07-09T12:33:02.853Z,67.9
2018-07-09T12:35:59.046Z,67.2
2018-07-09T12:38:55.300Z,66.2
2018-07-09T12:41:51.509Z,64.9
2018-07-09T12:44:47.709Z,66.8
2018-07-09T12:47:43.886Z,66.6
2018-07-09T12:50:40.757Z,68
2018-07-09T12:53:39.159Z,63.2
2018-07-09T12:56:32.468Z,65.4
2018-07-09T12:59:28.902Z,64.9
2018-07-09T13:02:24.889Z,65.6
2018-07-09T13:05:21.089Z,64.9
2018-07-09T13:08:17.276Z,64.8
2018-07-09T13:11:13.524Z,64.7
2018-07-09T13:17:05.921Z,64.4
2018-07-09T13:20:02.489Z,65.9
2018-07-09T13:22:58.349Z,63.8
2018-07-09T13:25:54.532Z,61.6
2018-07-09T13:28:50.717Z,64.5
2018-07-09T13:31:46.921Z,64
2018-07-09T13:34:43.110Z,64.4
2018-07-09T13:37:39.317Z,64.9
2018-07-09T13:40:35.529Z,66.3
2018-07-09T13:43:31.693Z,66.2
2018-07-09T13:46:27.907Z,64.5
2018-07-09T13:49:24.125Z,65.4
2018-07-09T13:52:20.310Z,62.7
2018-07-09T13:55:16.481Z,63.4
2018-07-09T14:01:08.791Z,65
2018-07-09T14:04:05.071Z,68.1
2018-07-09T14:07:01.132Z,67
2018-07-09T14:10:00.113Z,66.7
2018-07-09T14:12:53.468Z,68.3
2018-07-09T14:15:49.654Z,67.3
2018-07-09T14:18:46.039Z,67.1
2018-07-09T14:21:44.836Z,66.3
2018-07-09T14:27:34.868Z,66.4
2018-07-09T14:30:30.242Z,65.5
2018-07-09T14:33:27.425Z,64.4
2018-07-09T14:36:23.535Z,66.8
2018-07-09T14:39:22.619Z,65.9
2018-07-09T14:42:17.553Z,64.5
2018-07-09T14:45:11.123Z,65
2018-07-09T14:48:07.288Z,66.1
2018-07-09T14:51:03.158Z,67.1
2018-07-09T14:54:00.446Z,67.4
2018-07-09T14:56:55.554Z,67.6
2018-07-09T14:59:51.448Z,67.2
2018-07-09T15:02:47.812Z,68.6
2018-07-09T15:08:39.947Z,66.3
2018-07-09T15:11:37.103Z,66.5
2018-07-09T15:14:32.312Z,65.8
2018-07-09T15:17:28.504Z,65.8
2018-07-09T15:20:24.688Z,64.7
2018-07-09T15:23:20.915Z,65.1
2018-07-09T15:26:17.312Z,64
2018-07-09T15:29:13.258Z,64.5
2018-07-09T15:32:10.470Z,64.5
2018-07-09T15:35:05.681Z,63.2
2018-07-09T15:38:01.854Z,65
2018-07-09T15:40:58.031Z,65.4
2018-07-09T15:43:54.133Z,65.8
2018-07-09T15:46:50.277Z,65.3
2018-07-09T15:49:46.477Z,65.3
2018-07-09T15:52:42.575Z,65.2
2018-07-09T15:55:38.710Z,65.4
2018-07-09T15:58:34.871Z,65.2
2018-07-09T16:01:31.021Z,65.5
2018-07-09T16:04:27.179Z,64.4
2018-07-09T16:07:23.351Z,64.9
2018-07-09T16:10:19.515Z,63
2018-07-09T16:13:15.694Z,61.9
2018-07-09T16:16:11.899Z,62.3
2018-07-09T16:19:08.020Z,64
2018-07-09T16:22:04.202Z,64.7
2018-07-09T16:25:00.370Z,65.2
2018-07-09T16:27:56.512Z,64.3
2018-07-09T16:30:52.657Z,64.7
2018-07-09T16:33:48.805Z,65.2
2018-07-09T16:36:44.997Z,65.2
2018-07-09T16:39:41.296Z,63.3
2018-07-09T16:42:37.317Z,62.2
2018-07-09T16:45:33.491Z,61.3
2018-07-09T16:48:29.628Z,62.7
2018-07-09T16:51:25.829Z,63.1
2018-07-09T16:54:22.055Z,63.1
2018-07-09T16:57:18.263Z,61.3
2018-07-09T17:00:14.473Z,61.2
2018-07-09T17:03:10.784Z,61.6
2018-07-09T17:06:06.876Z,61.1
2018-07-09T17:09:03.065Z,61.2
2018-07-09T17:11:59.255Z,60.7
2018-07-09T17:14:55.441Z,62
2018-07-09T17:17:51.611Z,62.5
2018-07-09T17:20:47.796Z,63
2018-07-09T17:23:43.980Z,63.6
2018-07-09T17:26:40.855Z,62.8
2018-07-09T17:29:36.323Z,61.6
2018-07-09T17:32:32.968Z,61.4
2018-07-09T17:35:28.607Z,61.5
2018-07-09T17:38:24.762Z,60.5
2018-07-09T17:41:20.882Z,60.9
2018-07-09T17:44:17.024Z,60.1
2018-07-09T17:47:13.154Z,61.2
2018-07-09T17:50:09.300Z,61.6
2018-07-09T17:56:01.479Z,60.9
2018-07-09T17:58:57.594Z,61.5
2018-07-09T18:01:53.680Z,61.7
2018-07-09T18:04:49.777Z,61.3
2018-07-09T18:07:45.878Z,61.8
2018-07-09T18:10:41.982Z,62
2018-07-09T18:13:38.381Z,62.1
2018-07-09T18:16:34.159Z,62.5
2018-07-09T18:19:30.298Z,62.5
2018-07-09T18:22:26.329Z,62.8
2018-07-09T18:25:22.553Z,63.4
2018-07-09T18:28:18.477Z,65.1
2018-07-09T18:31:14.519Z,68.1
2018-07-09T18:34:10.567Z,67
2018-07-09T18:42:58.661Z,69.1
2018-07-09T18:45:54.675Z,68.5
2018-07-09T18:48:50.739Z,70.6
2018-07-09T18:51:46.767Z,72.6
2018-07-09T18:54:42.803Z,73.7
2018-07-09T18:57:38.840Z,73.4
2018-07-09T19:03:30.895Z,76.3
2018-07-09T19:09:22.955Z,76.1
2018-07-09T19:12:18.940Z,76.5
2018-07-09T19:15:14.936Z,77.6
2018-07-09T19:18:13.927Z,77.7
2018-07-09T19:21:07.173Z,79.7
2018-07-09T19:24:03.308Z,79.2
2018-07-09T19:29:54.871Z,79.9
2018-07-09T19:32:50.839Z,79
2018-07-09T19:35:46.820Z,80.2
2018-07-09T19:38:42.776Z,81.4
2018-07-09T19:41:38.914Z,81.5
2018-07-09T19:44:34.726Z,81.5
2018-07-09T19:47:30.622Z,81.3
2018-07-09T19:50:26.594Z,83.3
2018-07-09T19:53:22.499Z,82.3
2018-07-09T19:56:18.443Z,82.1
2018-07-09T19:59:14.350Z,83.8
2018-07-09T20:05:06.322Z,83.3
2018-07-09T20:08:02.103Z,84.3
2018-07-09T20:10:58.039Z,84.1
2018-07-09T20:13:53.951Z,84.3
2018-07-09T20:16:49.863Z,84.7
2018-07-09T20:19:45.808Z,85
2018-07-09T20:22:41.745Z,85.6
2018-07-09T20:28:33.506Z,86
2018-07-09T20:31:29.375Z,86.8
2018-07-09T20:34:28.179Z,87
2018-07-09T20:37:21.142Z,87.6
2018-07-09T20:43:12.888Z,88.2
2018-07-09T20:46:08.761Z,88.9
2018-07-09T20:49:04.854Z,89.6
2018-07-09T20:52:00.500Z,89.6
2018-07-09T20:54:56.348Z,88.7
2018-07-09T20:57:52.186Z,88.9
2018-07-09T21:06:42.665Z,88.5
2018-07-09T21:09:35.570Z,88.4
2018-07-09T21:21:18.858Z,90
2018-07-09T21:30:06.350Z,90.3
2018-07-09T21:33:02.156Z,90.3
2018-07-09T21:35:58.006Z,90.5
2018-07-09T21:38:53.855Z,90.6
2018-07-09T21:41:49.918Z,90.7
2018-07-09T21:44:45.499Z,91
2018-07-09T21:47:41.305Z,91.1
2018-07-09T21:50:37.149Z,91.3
2018-07-09T21:56:29.053Z,91.7
2018-07-09T22:02:21.340Z,91.7
2018-07-09T22:05:19.121Z,91.8
2018-07-09T22:11:07.957Z,92.1
2018-07-09T22:14:03.518Z,92.2
2018-07-09T22:16:59.261Z,92.2
2018-07-09T22:19:57.881Z,92.4
2018-07-09T22:25:47.601Z,92.5
2018-07-09T22:28:42.380Z,92.5
2018-07-09T22:31:38.596Z,92.6
2018-07-09T22:37:29.865Z,93.1
2018-07-09T22:40:25.372Z,93.3
2018-07-09T22:43:21.133Z,93.3
2018-07-09T22:46:16.854Z,93.4
2018-07-09T23:00:55.649Z,93.5
2018-07-09T23:15:34.019Z,93.9
2018-07-09T23:27:17.358Z,94
2018-07-09T23:30:15.619Z,94.2
2018-07-09T23:33:08.385Z,94.1
2018-07-09T23:38:59.855Z,94.1
2018-07-09T23:41:55.495Z,94.2
2018-07-09T23:47:46.824Z,94.4
2018-07-09T23:50:42.561Z,94.5
2018-07-09T23:56:33.858Z,94.5
2018-07-09T23:59:29.656Z,94.4
